»·PEaware :: N235B KSBA-KBUR

N235B :: KSBA-KBUR

FLIGHT INFORMATION

Flight Status: Arrived
Operator: Privately registered:
United States
More flights under this callsign
Pilot: Jason D. (29273)
Aircraft: BEECH AIRCRAFT BARON
(BE58)
More flights by this aircraft type
Origin: KSBA Santa Barbara Mun
United States
Destination: KBUR Bob Hope-Burbank
United States
More flights between these airports :: More routes between these airports
Route: +FIM
File this flight plan on PilotEdge
Remarks:
Altitude:
(Current/Filed)
5,500ft
Speed:
(Current/Filed)
110kts
Departed: 15-Aug-20 09:19 AM
Arrived: 15-Aug-20 09:54 AM
Distance/Time
Traveled:
75nm/0:34
Distance/Time
To Go:
Arrived

Flight Plot

Page will automatically refresh every two minutes.


Map Options




Map Legend


Flown Route
Filed Route
Departure Airport
Arrival Airport
Navaid (VOR, NDB)
Fix

Horizontal Profiles

Position Reports

Time Latitude Longitude Heading Altitude Ground
Speed
15-Aug-20 09:04 34.422653 -119.835589 340 11ft 0kts
15-Aug-20 09:05 34.422654 -119.835589 341 11ft 0kts
15-Aug-20 09:06 34.422654 -119.835589 341 11ft 0kts
15-Aug-20 09:07 34.422654 -119.835589 341 11ft 0kts
15-Aug-20 09:08 34.422654 -119.835589 341 11ft 0kts
15-Aug-20 09:09 34.422654 -119.835589 341 11ft 0kts
15-Aug-20 09:10 34.422654 -119.835589 341 11ft 0kts
15-Aug-20 09:11 34.422654 -119.835589 341 11ft 0kts
15-Aug-20 09:12 34.422654 -119.835589 341 11ft 0kts
15-Aug-20 09:13 34.422654 -119.835589 341 11ft 0kts
15-Aug-20 09:14 34.422832 -119.836282 275 11ft 14kts
15-Aug-20 09:15 34.426755 -119.836491 91 11ft 20kts
15-Aug-20 09:16 34.427073 -119.834688 5 11ft 0kts
15-Aug-20 09:17 34.427251 -119.834668 4 11ft 13kts
15-Aug-20 09:18 34.427712 -119.844089 266 53ft 98kts
15-Aug-20 09:19 34.424072 -119.880343 261 1527ft 113kts
15-Aug-20 09:20 34.418941 -119.931404 261 1224ft 142kts
15-Aug-20 09:21 34.415420 -119.968015 261 1322ft 91kts
15-Aug-20 09:22 34.404833 -119.989037 212 1510ft 79kts
15-Aug-20 09:23 34.396745 -119.977966 31 1595ft 87kts
15-Aug-20 09:24 34.401844 -119.936942 89 2096ft 162kts
15-Aug-20 09:25 34.403556 -119.885505 89 3284ft 145kts
15-Aug-20 09:26 34.405630 -119.837635 89 4479ft 140kts
15-Aug-20 09:27 34.407605 -119.790793 90 5538ft 144kts
15-Aug-20 09:28 34.409449 -119.735088 90 5465ft 175kts
15-Aug-20 09:29 34.411269 -119.675638 90 5447ft 176kts
15-Aug-20 09:30 34.413106 -119.616042 90 5445ft 176kts
15-Aug-20 09:31 34.414420 -119.556708 96 5434ft 176kts
15-Aug-20 09:32 34.410303 -119.497759 97 5436ft 176kts
15-Aug-20 09:33 34.405620 -119.438411 101 5439ft 177kts
15-Aug-20 09:34 34.398397 -119.378602 101 5437ft 181kts
15-Aug-20 09:35 34.391037 -119.318589 101 5434ft 184kts
15-Aug-20 09:36 34.389209 -119.255812 92 5441ft 187kts
15-Aug-20 09:37 34.388036 -119.192372 94 5434ft 188kts
15-Aug-20 09:38 34.383821 -119.129426 97 5433ft 186kts
15-Aug-20 09:39 34.379322 -119.066922 97 5432ft 186kts
15-Aug-20 09:40 34.374860 -119.004557 97 5425ft 185kts
15-Aug-20 09:41 34.367483 -118.942881 101 5425ft 184kts
15-Aug-20 09:42 34.358740 -118.880946 106 5110ft 195kts
15-Aug-20 09:43 34.343847 -118.816121 107 3909ft 204kts
15-Aug-20 09:44 34.329857 -118.756250 107 3924ft 173kts
15-Aug-20 09:45 34.310129 -118.703493 117 3948ft 172kts
15-Aug-20 09:46 34.293608 -118.649041 107 3875ft 178kts
15-Aug-20 09:47 34.278493 -118.588803 107 3105ft 194kts
15-Aug-20 09:48 34.262218 -118.530469 119 3286ft 148kts
15-Aug-20 09:49 34.233097 -118.494330 147 3443ft 173kts
15-Aug-20 09:50 34.208370 -118.452442 98 3350ft 176kts
15-Aug-20 09:51 34.199758 -118.408984 96 1886ft 124kts
15-Aug-20 09:52 34.198089 -118.375352 89 870ft 95kts
15-Aug-20 09:53 34.198692 -118.360204 2 718ft 0kts
15-Aug-20 09:54 34.198721 -118.360202 4 718ft 4kts
15-Aug-20 09:55 34.199709 -118.360107 27 722ft 0kts

Navigation Log

Ident Type
Flight plan parsing failed, navigation log unavailable